Latest Weather Observations for Swan Hill

IDN60801

Issued at 8:32 pm EST Monday 30 May 2016 (issued every 30 minutes, with the page automatically refreshed every 10 minutes)

About weather observations | Map of weather stations | Latest weather observations for NSW | Other Formats
Station Details ID: 077094 Name: SWAN HILL AERODROME Lat: -35.38 Lon: 143.54 Height: 71.0 m
Data from the previous 72 hours. | See also: Recent months at Swan Hill
Date/Time
EST
Temp
°C
App
Temp
°C
Dew
Point
Rel
Hum
%
Delta-T
°C
Wind Press
QNH
hPa
Press
MSL
hPa
Rain
since 9 am
mm
Dir
 
Spd
km/h
Gust
km/h
Spd
kts
Gust
kts
30/08:30pm 7.6 4.9 3.6 76 1.7 E 7 9 4 5 1026.9 1027.0 0.0
30/08:00pm 8.4 5.3 3.8 73 2.0 E 9 11 5 6 1026.6 1026.6 0.0
30/07:30pm 8.5 5.5 3.9 73 2.0 E 9 11 5 6 1026.4 1026.4 0.0
30/07:00pm 8.3 5.3 4.1 75 1.8 E 9 11 5 6 1026.2 1026.2 0.0
30/06:30pm 8.6 6.0 4.2 74 1.9 E 7 9 4 5 1025.8 1025.8 0.0
30/06:00pm 10.2 7.5 3.9 65 2.8 E 7 11 4 6 1025.4 1025.4 0.0
30/05:30pm 11.2 8.2 4.0 61 3.2 E 9 13 5 7 1025.2 1025.2 0.0
30/05:00pm 12.5 9.1 4.0 56 3.8 E 11 17 6 9 1025.0 1025.0 0.0
30/04:30pm 13.4 9.6 3.8 52 4.4 ENE 13 20 7 11 1024.8 1024.8 0.0
30/04:00pm 13.5 9.3 3.8 52 4.4 NE 15 20 8 11 1024.6 1024.6 0.0
30/03:30pm 13.7 8.7 3.5 50 4.6 NE 19 24 10 13 1024.4 1024.4 0.0
30/03:00pm 13.6 8.9 3.4 50 4.6 NE 17 26 9 14 1024.5 1024.5 0.0
30/02:30pm 13.7 8.8 4.0 52 4.4 NE 19 26 10 14 1024.5 1024.5 0.0
30/02:00pm 14.2 9.8 4.5 52 4.5 NE 17 22 9 12 1024.5 1024.5 0.0
30/01:30pm 13.1 8.2 4.0 54 4.1 NE 19 24 10 13 1024.8 1024.8 0.0
30/01:00pm 13.3 8.3 4.5 55 4.0 NE 20 26 11 14 1025.0 1025.0 0.0
30/12:30pm 13.0 8.0 3.7 53 4.2 NE 19 24 10 13 1025.5 1025.5 0.0
30/12:00pm 12.0 7.5 4.2 59 3.5 NE 17 26 9 14 1025.9 1025.9 0.0
30/11:30am 11.3 6.8 4.1 61 3.2 ENE 17 24 9 13 1026.1 1026.1 0.0
30/11:00am 10.9 6.8 4.4 64 2.9 ENE 15 22 8 12 1026.5 1026.5 0.0
30/10:30am 10.3 6.2 4.2 66 2.7 NE 15 20 8 11 1026.6 1026.6 0.0
30/10:00am 9.4 5.6 3.8 68 2.4 NE 13 19 7 10 1026.7 1026.7 0.0
30/09:30am 8.6 4.7 3.2 69 2.3 ENE 13 20 7 11 1026.2 1026.2 0.0
30/09:00am 8.0 4.5 3.3 72 2.0 E 11 15 6 8 1026.1 1026.1 0.0
30/08:30am 7.6 4.4 2.9 72 2.0 ENE 9 15 5 8 1026.0 1026.0 0.0
30/08:00am 7.3 3.7 2.8 73 1.9 ENE 11 17 6 9 1025.7 1025.7 0.0
30/07:30am 7.2 3.6 2.7 73 1.9 ENE 11 15 6 8 1025.4 1025.4 0.0
30/07:00am 7.5 3.8 2.4 70 2.1 ENE 11 17 6 9 1025.1 1025.1 0.0
30/06:30am 7.5 3.8 2.4 70 2.1 ENE 11 17 6 9 1024.8 1024.8 0.0
30/06:00am 7.8 4.2 2.7 70 2.1 ENE 11 17 6 9 1024.5 1024.5 0.0
30/05:30am 7.6 4.3 2.5 70 2.1 E 9 13 5 7 1024.0 1024.0 0.0
30/05:00am 7.5 4.2 2.6 71 2.0 E 9 13 5 7 1024.0 1024.0 0.0
30/04:30am 7.2 4.3 2.7 73 1.9 E 7 9 4 5 1023.9 1023.9 0.0
30/04:00am 7.3 4.5 3.0 74 1.8 ENE 7 9 4 5 1023.7 1023.7 0.0
30/03:30am 7.5 4.2 2.6 71 2.0 E 9 13 5 7 1023.7 1023.7 0.0
30/03:00am 7.5 3.5 2.6 71 2.0 ESE 13 15 7 8 1023.4 1023.4 0.0
30/02:30am 6.6 3.3 2.7 76 1.6 ESE 9 11 5 6 1023.6 1023.6 0.0
30/02:00am 6.8 3.8 2.3 73 1.8 ESE 7 9 4 5 1023.6 1023.6 0.0
30/01:30am 6.2 2.8 2.1 75 1.7 E 9 11 5 6 1023.4 1023.4 0.0
30/01:00am 6.1 3.1 2.0 75 1.7 E 7 9 4 5 1023.3 1023.3 0.0
30/12:30am 6.7 3.4 2.4 74 1.8 E 9 11 5 6 1023.3 1023.3 0.0
30/12:00am 7.6 4.3 2.5 70 2.1 E 9 11 5 6 1023.3 1023.3 0.0
 
Date/Time
EST
Temp
°C
App
Temp
°C
Dew
Point
Rel
Hum
%
Delta-T
°C
Wind Press
QNH
hPa
Press
MSL
hPa
Rain
since 9 am
mm
Dir
 
Spd
km/h
Gust
km/h
Spd
kts
Gust
kts
29/11:30pm 8.6 5.4 3.2 69 2.3 ENE 9 13 5 7 1023.3 1023.3 0.0
29/11:00pm 8.6 5.1 3.4 70 2.2 ENE 11 13 6 7 1023.3 1023.3 0.0
29/10:30pm 8.5 4.6 3.6 71 2.1 ENE 13 19 7 10 1023.3 1023.3 0.0
29/10:00pm 8.8 5.2 3.2 68 2.4 E 11 15 6 8 1023.4 1023.4 0.0
29/09:30pm 9.1 6.4 3.5 68 2.4 E 7 11 4 6 1023.3 1023.3 0.0
29/09:00pm 9.2 5.7 3.4 67 2.5 ESE 11 15 6 8 1023.1 1023.1 0.0
29/08:30pm 9.2 6.1 3.8 69 2.4 ESE 9 13 5 7 1023.0 1023.0 0.0
29/08:00pm 9.4 6.3 3.6 67 2.5 ESE 9 15 5 8 1022.6 1022.6 0.0
29/07:30pm 9.5 6.0 3.7 67 2.5 ESE 11 17 6 9 1022.5 1022.5 0.0
29/07:00pm 9.6 6.2 4.0 68 2.5 ESE 11 15 6 8 1022.3 1022.3 0.0
29/06:30pm 9.8 6.9 4.8 71 2.2 SE 9 13 5 7 1022.0 1022.0 0.0
29/06:00pm 10.1 7.2 4.5 68 2.5 SSE 9 11 5 6 1021.8 1021.8 0.0
29/05:30pm 10.9 8.4 3.9 62 3.1 SW 6 13 3 7 1021.7 1021.7 0.0
29/05:00pm 11.4 8.8 3.4 58 3.5 SW 6 7 3 4 1021.5 1021.5 0.0
29/04:30pm 11.7 9.4 2.5 53 4.0 SW 4 9 2 5 1021.2 1021.2 0.0
29/04:00pm 11.9 9.5 2.4 52 4.1 SW 4 7 2 4 1021.3 1021.3 0.0
29/03:30pm 12.1 8.4 2.3 51 4.3 SW 11 17 6 9 1021.1 1021.1 0.0
29/03:00pm 12.1 9.6 1.7 49 4.4 WSW 4 11 2 6 1021.1 1021.1 0.0
29/02:30pm 12.4 9.2 2.8 52 4.2 S 9 15 5 8 1021.1 1021.1 0.0
29/02:00pm 11.7 8.1 3.0 55 3.8 SSW 11 17 6 9 1021.2 1021.2 0.0
29/01:30pm 11.8 8.2 2.8 54 3.9 WSW 11 17 6 9 1021.3 1021.3 0.0
29/01:00pm 11.6 7.6 2.6 54 3.9 WSW 13 20 7 11 1021.6 1021.6 0.0
29/12:30pm 11.6 7.1 2.4 53 4.0 W 15 19 8 10 1021.7 1021.7 0.0
29/12:00pm 11.9 8.0 3.2 55 3.8 WSW 13 26 7 14 1021.8 1021.8 0.0
29/11:30am 11.7 8.7 2.2 52 4.1 WSW 7 17 4 9 1022.1 1022.1 0.0
29/11:00am 11.6 8.4 2.9 55 3.8 S 9 15 5 8 1022.1 1022.1 0.0
29/10:30am 11.2 8.2 4.0 61 3.2 S 9 15 5 8 1022.3 1022.3 0.0
29/10:00am 10.6 7.9 5.4 70 2.4 S 9 15 5 8 1022.1 1022.1 0.0
29/09:30am 9.4 6.5 4.8 73 2.1 SSE 9 13 5 7 1021.8 1021.8 0.0
29/09:00am 8.0 5.7 4.8 80 1.4 S 6 9 3 5 1021.7 1021.7 0.2
29/08:30am 7.1 4.6 4.8 85 1.0 SSW 7 9 4 5 1021.6 1021.6 0.2
29/08:00am 6.4 4.0 4.4 87 0.9 SW 6 11 3 6 1021.3 1021.3 0.2
29/07:30am 5.4 3.0 4.1 91 0.6 SSW 6 9 3 5 1020.9 1020.9 0.2
29/07:00am 4.7 2.2 3.5 92 0.5 SW 6 7 3 4 1020.7 1020.7 0.0
29/06:30am 3.7 1.7 2.5 92 0.5 SSW 2 7 1 4 1020.3 1020.3 0.0
29/06:00am 2.9 1.2 1.6 91 0.5 CALM 0 2 0 1 1019.9 1019.9 0.0
29/05:30am 3.3 0.5 2.0 91 0.5 SW 6 7 3 4 1019.4 1019.4 0.0
29/05:00am 3.8 1.1 2.5 91 0.5 SW 6 7 3 4 1019.3 1019.3 0.0
29/04:30am 4.3 1.5 3.0 91 0.5 SW 7 9 4 5 1019.2 1019.2 0.0
29/04:00am 4.2 1.5 2.7 90 0.6 SW 6 7 3 4 1019.2 1019.2 0.0
29/03:30am 4.7 2.1 3.0 89 0.7 SW 6 7 3 4 1019.0 1019.0 0.0
29/03:00am 5.4 2.3 3.7 89 0.7 SW 9 11 5 6 1019.1 1019.1 0.0
29/02:30am 5.7 2.7 3.9 88 0.8 SW 9 11 5 6 1019.0 1019.0 0.0
29/02:00am 5.6 2.9 3.8 88 0.8 SSW 7 9 4 5 1019.0 1019.0 0.0
29/01:30am 5.5 3.0 3.7 88 0.8 SSW 6 9 3 5 1018.9 1018.9 0.0
29/01:00am 6.0 3.4 4.2 88 0.8 SSW 7 9 4 5 1018.8 1018.8 0.0
29/12:30am 6.1 3.4 3.9 86 0.9 SSW 7 9 4 5 1018.6 1018.6 0.0
29/12:00am 7.0 4.5 4.8 86 1.0 SW 7 11 4 6 1018.7 1018.7 0.0
 
Date/Time
EST
Temp
°C
App
Temp
°C
Dew
Point
Rel
Hum
%
Delta-T
°C
Wind Press
QNH
hPa
Press
MSL
hPa
Rain
since 9 am
mm
Dir
 
Spd
km/h
Gust
km/h
Spd
kts
Gust
kts
28/11:30pm 7.3 4.5 5.0 85 1.0 SW 9 11 5 6 1018.7 1018.7 0.0
28/11:00pm 7.6 4.9 5.4 86 1.0 SW 9 11 5 6 1018.6 1018.6 0.0
28/10:30pm 8.2 5.2 5.8 85 1.1 SSW 11 13 6 7 1018.3 1018.3 0.0
28/10:00pm 8.4 5.4 5.9 84 1.1 SW 11 15 6 8 1018.2 1018.2 0.0
28/09:30pm 8.8 6.3 6.4 85 1.1 SW 9 13 5 7 1017.8 1017.9 0.0
28/09:00pm 8.9 6.0 6.5 85 1.1 SW 11 13 6 7 1017.5 1017.6 0.0
28/08:30pm 9.2 6.6 6.3 82 1.3 SW 9 13 5 7 1017.3 1017.4 0.0
28/08:00pm 9.6 7.0 6.3 80 1.5 SW 9 13 5 7 1016.8 1016.9 0.0
28/07:30pm 9.6 7.0 6.1 79 1.6 SW 9 13 5 7 1016.6 1016.7 0.0
28/07:00pm 10.1 7.2 6.3 77 1.8 SW 11 13 6 7 1016.2 1016.3 0.0
28/06:30pm 10.6 7.3 6.4 75 2.0 SW 13 17 7 9 1016.0 1016.1 0.0
28/06:00pm 11.2 8.2 6.1 71 2.4 SW 11 17 6 9 1015.7 1015.8 0.0
28/05:30pm 11.9 8.6 6.4 69 2.6 SW 13 17 7 9 1015.5 1015.6 0.0
28/05:00pm 13.1 9.9 6.9 66 3.0 SW 13 17 7 9 1015.2 1015.3 0.0
28/04:30pm 13.3 8.6 6.2 62 3.4 SW 20 28 11 15 1014.8 1014.8 0.0
28/04:00pm 14.0 10.6 5.9 58 3.9 SSW 13 17 7 9 1014.4 1014.4 0.0
28/03:30pm 14.4 10.0 6.5 59 3.8 SSW 19 24 10 13 1014.1 1014.1 0.0
28/03:00pm 14.0 10.2 5.9 58 3.9 S 15 20 8 11 1013.7 1013.7 0.0
28/02:30pm 14.5 10.4 6.3 58 4.0 S 17 32 9 17 1013.4 1013.4 0.0
28/02:00pm 14.3 10.7 6.6 60 3.7 SSW 15 24 8 13 1013.0 1013.0 0.0
28/01:30pm 14.5 11.4 7.1 61 3.6 SSE 13 20 7 11 1012.9 1012.9 0.0
28/01:00pm 14.1 9.7 6.5 60 3.7 S 19 32 10 17 1012.9 1012.9 0.0
28/12:30pm 14.1 10.1 6.7 61 3.6 S 17 30 9 16 1012.8 1012.8 0.0
28/12:00pm 13.1 8.6 6.2 63 3.3 S 19 26 10 14 1012.7 1012.7 0.0
28/11:30am 13.4 9.6 7.4 67 2.9 S 17 24 9 13 1012.7 1012.7 0.0
28/11:00am 13.1 9.7 7.5 69 2.7 S 15 26 8 14 1012.7 1012.7 0.0
28/10:30am 12.5 9.2 8.0 74 2.2 S 15 24 8 13 1012.7 1012.7 0.0
28/10:00am 11.6 8.2 7.7 77 1.9 S 15 22 8 12 1012.2 1012.2 0.0
28/09:30am 10.9 7.9 7.6 80 1.6 S 13 20 7 11 1011.8 1011.8 0.0
28/09:00am 10.2 7.2 7.8 85 1.2 S 13 17 7 9 1011.1 1011.1 9.2
28/08:37am 9.6 6.6 7.5 87 1.0 S 13 19 7 10 1010.9 1010.9 9.2
28/08:30am 9.6 6.6 7.7 88 0.9 S 13 19 7 10 1010.7 1010.7 9.2
28/08:00am 9.7 6.4 8.1 90 0.8 S 15 26 8 14 1010.3 1010.3 9.2
28/07:30am 9.4 6.1 8.0 91 0.7 S 15 22 8 12 1009.8 1009.8 9.2
28/07:10am 9.4 6.5 8.0 91 0.7 S 13 22 7 12 1009.4 1009.4 9.2
28/07:00am 9.4 6.1 8.2 92 0.6 S 15 22 8 12 1009.1 1009.1 9.2
28/06:51am 9.5 6.3 8.3 92 0.6 S 15 22 8 12 1008.9 1008.9 9.2
28/06:40am 9.5 5.9 8.4 93 0.5 S 17 28 9 15 1008.8 1008.8 9.2
28/06:30am 9.6 6.0 8.5 93 0.5 SSW 17 30 9 16 1008.6 1008.6 9.2
28/06:28am 9.6 6.0 8.5 93 0.5 SSW 17 22 9 12 1008.6 1008.6 9.2
28/06:00am 9.4 5.8 8.3 93 0.5 SW 17 24 9 13 1008.0 1008.0 9.2
28/05:30am 9.2 5.5 8.0 92 0.6 SW 17 22 9 12 1007.7 1007.7 9.2
28/05:00am 9.1 5.4 7.9 92 0.6 SW 17 22 9 12 1007.4 1007.4 9.2
28/04:30am 9.0 5.6 7.6 91 0.7 WSW 15 20 8 11 1007.1 1007.1 9.2
28/04:00am 8.9 5.5 7.5 91 0.7 WSW 15 22 8 12 1006.7 1006.7 9.2
28/03:56am 8.9 5.5 7.5 91 0.7 WSW 15 20 8 11 1006.7 1006.7 9.2
28/03:30am 9.0 5.6 7.6 91 0.7 WSW 15 19 8 10 1006.6 1006.6 9.2
28/03:00am 9.1 5.7 7.7 91 0.7 WSW 15 19 8 10 1006.7 1006.7 9.2
28/02:30am 9.2 6.2 7.8 91 0.7 WSW 13 17 7 9 1006.6 1006.6 9.0
28/02:00am 9.3 6.7 7.7 90 0.8 W 11 13 6 7 1006.4 1006.4 8.8
28/01:30am 9.3 6.3 7.6 89 0.8 W 13 15 7 8 1006.3 1006.3 8.6
28/01:00am 9.4 6.0 7.7 89 0.8 W 15 19 8 10 1006.4 1006.4 8.6
28/12:30am 9.4 6.0 7.5 88 0.9 WNW 15 19 8 10 1006.6 1006.6 8.4
28/12:00am 9.6 5.4 7.5 87 1.0 NW 19 22 10 12 1006.7 1006.7 8.2
 
Date/Time
EST
Temp
°C
App
Temp
°C
Dew
Point
Rel
Hum
%
Delta-T
°C
Wind Press
QNH
hPa
Press
MSL
hPa
Rain
since 9 am
mm
Dir
 
Spd
km/h
Gust
km/h
Spd
kts
Gust
kts
27/11:30pm 9.7 4.9 7.5 86 1.1 WNW 22 28 12 15 1006.8 1006.8 8.2
27/11:00pm 10.0 5.6 7.6 85 1.2 WNW 20 24 11 13 1006.7 1006.7 8.2
27/10:30pm 10.3 7.1 8.4 88 0.9 WNW 15 17 8 9 1006.7 1006.7 8.2
27/10:00pm 10.4 6.5 8.5 88 0.9 WNW 19 22 10 12 1006.7 1006.7 8.2
27/09:30pm 10.5 8.0 8.4 87 1.0 WNW 11 13 6 7 1006.6 1006.6 8.2
27/09:00pm 10.6 7.8 8.5 87 1.0 W 13 15 7 8 1006.6 1006.6 8.2

Other Formats:

Comma delimited format used in spreadsheet applications
http://www.bom.gov.au/fwo/IDN60801/IDN60801.94843.axf

JavaScript Object Notation format (JSON) in row-major order
http://www.bom.gov.au/fwo/IDN60801/IDN60801.94843.json